sensor_id;sensor_type;location;lat;lon;timestamp;P1;durP1;ratioP1;P2;durP2;ratioP2
59300;SDS011;45073;52.740;6.784;2023-05-09T00:01:09;36.15;;;32.95;;
59300;SDS011;45073;52.740;6.784;2023-05-09T00:03:36;39.67;;;36.17;;
59300;SDS011;45073;52.740;6.784;2023-05-09T00:06:02;34.80;;;31.73;;
59300;SDS011;45073;52.740;6.784;2023-05-09T00:08:29;34.15;;;30.98;;
59300;SDS011;45073;52.740;6.784;2023-05-09T00:11:00;33.50;;;30.52;;
59300;SDS011;45073;52.740;6.784;2023-05-09T00:13:26;32.75;;;29.85;;
59300;SDS011;45073;52.740;6.784;2023-05-09T00:15:52;32.25;;;29.45;;
59300;SDS011;45073;52.740;6.784;2023-05-09T00:18:21;22.67;;;18.48;;
59300;SDS011;45073;52.740;6.784;2023-05-09T00:20:47;30.13;;;27.52;;
59300;SDS011;45073;52.740;6.784;2023-05-09T00:23:13;30.92;;;28.25;;
59300;SDS011;45073;52.740;6.784;2023-05-09T00:25:40;33.20;;;30.33;;
59300;SDS011;45073;52.740;6.784;2023-05-09T00:28:06;33.15;;;30.15;;
59300;SDS011;45073;52.740;6.784;2023-05-09T00:30:32;26.27;;;19.98;;
59300;SDS011;45073;52.740;6.784;2023-05-09T00:32:57;34.50;;;31.25;;
59300;SDS011;45073;52.740;6.784;2023-05-09T00:35:23;33.78;;;30.77;;
59300;SDS011;45073;52.740;6.784;2023-05-09T00:37:48;33.83;;;30.92;;
59300;SDS011;45073;52.740;6.784;2023-05-09T00:40:14;39.63;;;36.03;;
59300;SDS011;45073;52.740;6.784;2023-05-09T00:42:40;33.42;;;30.33;;
59300;SDS011;45073;52.740;6.784;2023-05-09T00:45:05;26.20;;;21.00;;
59300;SDS011;45073;52.740;6.784;2023-05-09T00:47:32;29.30;;;26.60;;
59300;SDS011;45073;52.740;6.784;2023-05-09T00:49:58;21.17;;;18.63;;
59300;SDS011;45073;52.740;6.784;2023-05-09T00:52:25;24.75;;;21.85;;
59300;SDS011;45073;52.740;6.784;2023-05-09T00:54:51;35.30;;;32.20;;
59300;SDS011;45073;52.740;6.784;2023-05-09T00:57:18;35.63;;;32.42;;
59300;SDS011;45073;52.740;6.784;2023-05-09T00:59:44;32.08;;;29.20;;
59300;SDS011;45073;52.740;6.784;2023-05-09T01:02:09;29.60;;;26.98;;
59300;SDS011;45073;52.740;6.784;2023-05-09T01:04:35;34.83;;;31.65;;
59300;SDS011;45073;52.740;6.784;2023-05-09T01:09:55;42.10;;;38.20;;
59300;SDS011;45073;52.740;6.784;2023-05-09T01:15:50;32.85;;;29.85;;
59300;SDS011;45073;52.740;6.784;2023-05-09T01:21:20;32.15;;;29.25;;
59300;SDS011;45073;52.740;6.784;2023-05-09T01:26:59;34.67;;;31.48;;
59300;SDS011;45073;52.740;6.784;2023-05-09T01:29:56;32.38;;;29.52;;
59300;SDS011;45073;52.740;6.784;2023-05-09T01:32:24;33.90;;;30.88;;
59300;SDS011;45073;52.740;6.784;2023-05-09T01:34:58;32.90;;;29.90;;
59300;SDS011;45073;52.740;6.784;2023-05-09T01:37:29;32.72;;;29.63;;
59300;SDS011;45073;52.740;6.784;2023-05-09T01:39:59;24.80;;;21.40;;
59300;SDS011;45073;52.740;6.784;2023-05-09T01:42:35;30.63;;;27.75;;
59300;SDS011;45073;52.740;6.784;2023-05-09T01:45:05;34.47;;;31.33;;
59300;SDS011;45073;52.740;6.784;2023-05-09T01:47:32;32.08;;;29.20;;
59300;SDS011;45073;52.740;6.784;2023-05-09T01:50:00;24.38;;;17.20;;
59300;SDS011;45073;52.740;6.784;2023-05-09T01:52:26;32.08;;;29.20;;
59300;SDS011;45073;52.740;6.784;2023-05-09T01:54:54;32.35;;;29.35;;
59300;SDS011;45073;52.740;6.784;2023-05-09T01:57:20;32.42;;;29.27;;
59300;SDS011;45073;52.740;6.784;2023-05-09T01:59:47;30.88;;;28.13;;
59300;SDS011;45073;52.740;6.784;2023-05-09T02:02:13;21.08;;;16.45;;
59300;SDS011;45073;52.740;6.784;2023-05-09T02:04:39;28.42;;;25.92;;
59300;SDS011;45073;52.740;6.784;2023-05-09T02:07:07;26.48;;;23.98;;
59300;SDS011;45073;52.740;6.784;2023-05-09T02:09:33;27.55;;;24.95;;
59300;SDS011;45073;52.740;6.784;2023-05-09T02:11:59;25.90;;;23.60;;
59300;SDS011;45073;52.740;6.784;2023-05-09T02:14:25;27.13;;;24.73;;
59300;SDS011;45073;52.740;6.784;2023-05-09T02:16:50;19.77;;;15.60;;
59300;SDS011;45073;52.740;6.784;2023-05-09T02:19:16;26.08;;;23.60;;
59300;SDS011;45073;52.740;6.784;2023-05-09T02:21:42;24.00;;;21.85;;
59300;SDS011;45073;52.740;6.784;2023-05-09T02:24:08;20.17;;;16.40;;
59300;SDS011;45073;52.740;6.784;2023-05-09T02:26:33;19.45;;;16.40;;
59300;SDS011;45073;52.740;6.784;2023-05-09T02:28:59;25.02;;;22.45;;
59300;SDS011;45073;52.740;6.784;2023-05-09T02:31:27;24.40;;;22.02;;
59300;SDS011;45073;52.740;6.784;2023-05-09T02:33:55;23.95;;;21.50;;
59300;SDS011;45073;52.740;6.784;2023-05-09T02:36:21;24.23;;;21.90;;
59300;SDS011;45073;52.740;6.784;2023-05-09T02:38:48;19.42;;;15.23;;
59300;SDS011;45073;52.740;6.784;2023-05-09T02:41:15;20.17;;;14.57;;
59300;SDS011;45073;52.740;6.784;2023-05-09T02:43:41;23.63;;;21.40;;
59300;SDS011;45073;52.740;6.784;2023-05-09T02:46:07;24.25;;;21.85;;
59300;SDS011;45073;52.740;6.784;2023-05-09T02:48:33;24.90;;;22.60;;
59300;SDS011;45073;52.740;6.784;2023-05-09T02:50:59;23.95;;;21.75;;
59300;SDS011;45073;52.740;6.784;2023-05-09T02:53:25;22.52;;;20.42;;
59300;SDS011;45073;52.740;6.784;2023-05-09T02:55:51;18.52;;;15.80;;
59300;SDS011;45073;52.740;6.784;2023-05-09T02:58:18;16.08;;;12.35;;
59300;SDS011;45073;52.740;6.784;2023-05-09T03:00:44;21.52;;;19.52;;
59300;SDS011;45073;52.740;6.784;2023-05-09T03:03:09;21.98;;;19.88;;
59300;SDS011;45073;52.740;6.784;2023-05-09T03:05:35;20.63;;;18.73;;
59300;SDS011;45073;52.740;6.784;2023-05-09T03:08:01;23.23;;;21.13;;
59300;SDS011;45073;52.740;6.784;2023-05-09T03:10:27;24.90;;;22.52;;
59300;SDS011;45073;52.740;6.784;2023-05-09T03:12:52;22.42;;;20.23;;
59300;SDS011;45073;52.740;6.784;2023-05-09T03:15:18;21.52;;;19.35;;
59300;SDS011;45073;52.740;6.784;2023-05-09T03:17:45;21.48;;;19.50;;
59300;SDS011;45073;52.740;6.784;2023-05-09T03:20:10;17.73;;;13.90;;
59300;SDS011;45073;52.740;6.784;2023-05-09T03:22:36;16.85;;;13.82;;
59300;SDS011;45073;52.740;6.784;2023-05-09T03:25:02;22.13;;;20.05;;
59300;SDS011;45073;52.740;6.784;2023-05-09T03:27:28;24.02;;;21.52;;
59300;SDS011;45073;52.740;6.784;2023-05-09T03:29:53;21.95;;;19.95;;
59300;SDS011;45073;52.740;6.784;2023-05-09T03:32:19;22.00;;;19.90;;
59300;SDS011;45073;52.740;6.784;2023-05-09T03:34:45;17.98;;;14.05;;
59300;SDS011;45073;52.740;6.784;2023-05-09T03:37:10;23.95;;;21.65;;
59300;SDS011;45073;52.740;6.784;2023-05-09T03:39:36;22.95;;;20.85;;
59300;SDS011;45073;52.740;6.784;2023-05-09T03:42:01;19.02;;;14.23;;
59300;SDS011;45073;52.740;6.784;2023-05-09T03:44:27;24.58;;;22.27;;
59300;SDS011;45073;52.740;6.784;2023-05-09T03:46:53;23.85;;;21.48;;
59300;SDS011;45073;52.740;6.784;2023-05-09T03:49:18;19.27;;;14.18;;
59300;SDS011;45073;52.740;6.784;2023-05-09T03:51:44;19.10;;;14.00;;
59300;SDS011;45073;52.740;6.784;2023-05-09T03:54:10;21.92;;;19.77;;
59300;SDS011;45073;52.740;6.784;2023-05-09T03:56:36;24.00;;;21.73;;
59300;SDS011;45073;52.740;6.784;2023-05-09T03:59:01;24.60;;;22.40;;
59300;SDS011;45073;52.740;6.784;2023-05-09T04:01:27;18.52;;;15.23;;
59300;SDS011;45073;52.740;6.784;2023-05-09T04:03:52;19.33;;;16.00;;
59300;SDS011;45073;52.740;6.784;2023-05-09T04:06:18;22.98;;;20.88;;
59300;SDS011;45073;52.740;6.784;2023-05-09T04:08:44;24.75;;;22.45;;
59300;SDS011;45073;52.740;6.784;2023-05-09T04:11:10;23.85;;;21.67;;
59300;SDS011;45073;52.740;6.784;2023-05-09T04:13:35;19.27;;;14.88;;
59300;SDS011;45073;52.740;6.784;2023-05-09T04:16:01;22.55;;;20.45;;
59300;SDS011;45073;52.740;6.784;2023-05-09T04:18:27;24.20;;;21.85;;
59300;SDS011;45073;52.740;6.784;2023-05-09T04:20:52;23.50;;;21.30;;
59300;SDS011;45073;52.740;6.784;2023-05-09T04:23:18;22.52;;;20.42;;
59300;SDS011;45073;52.740;6.784;2023-05-09T04:25:44;17.88;;;14.18;;
59300;SDS011;45073;52.740;6.784;2023-05-09T04:28:10;22.58;;;20.48;;
59300;SDS011;45073;52.740;6.784;2023-05-09T04:30:35;25.05;;;22.75;;
59300;SDS011;45073;52.740;6.784;2023-05-09T04:33:01;20.65;;;16.60;;
59300;SDS011;45073;52.740;6.784;2023-05-09T04:35:27;25.35;;;23.02;;
59300;SDS011;45073;52.740;6.784;2023-05-09T04:37:52;22.15;;;19.95;;
59300;SDS011;45073;52.740;6.784;2023-05-09T04:40:18;24.20;;;22.00;;
59300;SDS011;45073;52.740;6.784;2023-05-09T04:42:43;24.98;;;22.75;;
59300;SDS011;45073;52.740;6.784;2023-05-09T04:45:09;19.15;;;14.43;;
59300;SDS011;45073;52.740;6.784;2023-05-09T04:47:35;24.88;;;22.58;;
59300;SDS011;45073;52.740;6.784;2023-05-09T04:50:01;27.00;;;24.50;;
59300;SDS011;45073;52.740;6.784;2023-05-09T04:52:27;24.13;;;21.73;;
59300;SDS011;45073;52.740;6.784;2023-05-09T04:54:53;25.38;;;22.95;;
59300;SDS011;45073;52.740;6.784;2023-05-09T04:57:19;21.30;;;16.23;;
59300;SDS011;45073;52.740;6.784;2023-05-09T04:59:45;24.83;;;22.48;;
59300;SDS011;45073;52.740;6.784;2023-05-09T05:02:10;19.90;;;14.55;;
59300;SDS011;45073;52.740;6.784;2023-05-09T05:04:36;25.42;;;22.92;;
59300;SDS011;45073;52.740;6.784;2023-05-09T05:07:02;26.67;;;23.98;;
59300;SDS011;45073;52.740;6.784;2023-05-09T05:09:29;25.10;;;22.63;;
59300;SDS011;45073;52.740;6.784;2023-05-09T05:11:54;28.40;;;25.48;;
59300;SDS011;45073;52.740;6.784;2023-05-09T05:14:20;20.77;;;15.38;;
59300;SDS011;45073;52.740;6.784;2023-05-09T05:16:46;19.73;;;15.85;;
59300;SDS011;45073;52.740;6.784;2023-05-09T05:19:11;25.50;;;23.20;;
59300;SDS011;45073;52.740;6.784;2023-05-09T05:21:37;26.58;;;24.08;;
59300;SDS011;45073;52.740;6.784;2023-05-09T05:24:03;21.80;;;17.67;;
59300;SDS011;45073;52.740;6.784;2023-05-09T05:26:28;23.10;;;18.67;;
59300;SDS011;45073;52.740;6.784;2023-05-09T05:28:54;26.50;;;23.98;;
59300;SDS011;45073;52.740;6.784;2023-05-09T05:31:21;26.02;;;23.60;;
59300;SDS011;45073;52.740;6.784;2023-05-09T05:33:47;26.77;;;24.02;;
59300;SDS011;45073;52.740;6.784;2023-05-09T05:36:12;22.05;;;18.60;;
59300;SDS011;45073;52.740;6.784;2023-05-09T05:38:38;27.38;;;24.85;;
59300;SDS011;45073;52.740;6.784;2023-05-09T05:41:03;26.05;;;23.65;;
59300;SDS011;45073;52.740;6.784;2023-05-09T05:43:29;27.52;;;24.85;;
59300;SDS011;45073;52.740;6.784;2023-05-09T05:45:55;26.95;;;24.38;;
59300;SDS011;45073;52.740;6.784;2023-05-09T05:48:21;26.63;;;24.23;;
59300;SDS011;45073;52.740;6.784;2023-05-09T05:50:46;21.23;;;17.40;;
59300;SDS011;45073;52.740;6.784;2023-05-09T05:53:12;26.38;;;23.98;;
59300;SDS011;45073;52.740;6.784;2023-05-09T05:55:38;28.65;;;25.85;;
59300;SDS011;45073;52.740;6.784;2023-05-09T05:58:03;27.45;;;24.83;;
59300;SDS011;45073;52.740;6.784;2023-05-09T06:00:29;28.75;;;25.92;;
59300;SDS011;45073;52.740;6.784;2023-05-09T06:02:54;28.30;;;25.70;;
59300;SDS011;45073;52.740;6.784;2023-05-09T06:05:20;30.75;;;27.85;;
59300;SDS011;45073;52.740;6.784;2023-05-09T06:07:46;21.67;;;17.48;;
59300;SDS011;45073;52.740;6.784;2023-05-09T06:10:12;21.30;;;18.10;;
59300;SDS011;45073;52.740;6.784;2023-05-09T06:12:39;28.67;;;25.88;;
59300;SDS011;45073;52.740;6.784;2023-05-09T06:15:05;27.70;;;20.33;;
59300;SDS011;45073;52.740;6.784;2023-05-09T06:17:31;29.02;;;26.42;;
59300;SDS011;45073;52.740;6.784;2023-05-09T06:19:57;29.08;;;26.42;;
59300;SDS011;45073;52.740;6.784;2023-05-09T06:22:23;28.88;;;26.17;;
59300;SDS011;45073;52.740;6.784;2023-05-09T06:24:48;24.08;;;19.75;;
59300;SDS011;45073;52.740;6.784;2023-05-09T06:27:14;29.02;;;26.30;;
59300;SDS011;45073;52.740;6.784;2023-05-09T06:29:40;28.45;;;25.80;;
59300;SDS011;45073;52.740;6.784;2023-05-09T06:32:05;25.08;;;19.95;;
59300;SDS011;45073;52.740;6.784;2023-05-09T06:34:31;27.42;;;19.08;;
59300;SDS011;45073;52.740;6.784;2023-05-09T06:36:57;30.45;;;27.63;;
59300;SDS011;45073;52.740;6.784;2023-05-09T06:39:22;28.65;;;26.02;;
59300;SDS011;45073;52.740;6.784;2023-05-09T06:41:48;29.40;;;26.58;;
59300;SDS011;45073;52.740;6.784;2023-05-09T06:44:13;25.05;;;18.02;;
59300;SDS011;45073;52.740;6.784;2023-05-09T06:46:39;28.75;;;26.13;;
59300;SDS011;45073;52.740;6.784;2023-05-09T06:49:05;28.88;;;25.95;;
59300;SDS011;45073;52.740;6.784;2023-05-09T06:51:30;30.17;;;27.27;;
59300;SDS011;45073;52.740;6.784;2023-05-09T06:53:56;30.27;;;27.48;;
59300;SDS011;45073;52.740;6.784;2023-05-09T06:56:22;29.45;;;26.58;;
59300;SDS011;45073;52.740;6.784;2023-05-09T06:58:49;29.45;;;26.65;;
59300;SDS011;45073;52.740;6.784;2023-05-09T07:01:15;26.02;;;19.88;;
59300;SDS011;45073;52.740;6.784;2023-05-09T07:03:41;31.20;;;27.92;;
59300;SDS011;45073;52.740;6.784;2023-05-09T07:06:07;32.05;;;28.83;;
59300;SDS011;45073;52.740;6.784;2023-05-09T07:08:33;33.80;;;30.40;;
59300;SDS011;45073;52.740;6.784;2023-05-09T07:10:58;34.10;;;30.73;;
59300;SDS011;45073;52.740;6.784;2023-05-09T07:13:24;36.38;;;32.63;;
59300;SDS011;45073;52.740;6.784;2023-05-09T07:15:50;35.70;;;31.95;;
59300;SDS011;45073;52.740;6.784;2023-05-09T07:18:15;36.20;;;32.42;;
59300;SDS011;45073;52.740;6.784;2023-05-09T07:20:41;36.92;;;22.90;;
59300;SDS011;45073;52.740;6.784;2023-05-09T07:23:06;35.80;;;31.98;;
59300;SDS011;45073;52.740;6.784;2023-05-09T07:25:32;35.65;;;31.85;;
59300;SDS011;45073;52.740;6.784;2023-05-09T07:27:58;35.63;;;31.90;;
59300;SDS011;45073;52.740;6.784;2023-05-09T07:30:23;35.28;;;31.48;;
59300;SDS011;45073;52.740;6.784;2023-05-09T07:32:49;34.55;;;22.00;;
59300;SDS011;45073;52.740;6.784;2023-05-09T07:35:16;39.78;;;34.22;;
59300;SDS011;45073;52.740;6.784;2023-05-09T07:37:42;35.75;;;32.08;;
59300;SDS011;45073;52.740;6.784;2023-05-09T07:40:08;34.75;;;24.23;;
59300;SDS011;45073;52.740;6.784;2023-05-09T07:42:34;38.05;;;32.92;;
59300;SDS011;45073;52.740;6.784;2023-05-09T07:44:59;37.67;;;33.58;;
59300;SDS011;45073;52.740;6.784;2023-05-09T07:47:25;39.35;;;35.10;;
59300;SDS011;45073;52.740;6.784;2023-05-09T07:49:51;39.15;;;28.23;;
59300;SDS011;45073;52.740;6.784;2023-05-09T07:52:16;39.88;;;35.30;;
59300;SDS011;45073;52.740;6.784;2023-05-09T07:54:43;39.60;;;35.30;;
59300;SDS011;45073;52.740;6.784;2023-05-09T07:57:08;38.78;;;34.58;;
59300;SDS011;45073;52.740;6.784;2023-05-09T07:59:34;39.67;;;35.42;;
59300;SDS011;45073;52.740;6.784;2023-05-09T08:02:00;40.28;;;35.90;;
59300;SDS011;45073;52.740;6.784;2023-05-09T08:04:26;39.00;;;34.38;;
59300;SDS011;45073;52.740;6.784;2023-05-09T08:06:52;40.15;;;35.95;;
59300;SDS011;45073;52.740;6.784;2023-05-09T08:09:17;40.05;;;34.97;;
59300;SDS011;45073;52.740;6.784;2023-05-09T08:11:43;44.28;;;37.42;;
59300;SDS011;45073;52.740;6.784;2023-05-09T08:14:09;38.97;;;34.83;;
59300;SDS011;45073;52.740;6.784;2023-05-09T08:16:34;37.10;;;33.20;;
59300;SDS011;45073;52.740;6.784;2023-05-09T08:19:00;37.22;;;33.30;;
59300;SDS011;45073;52.740;6.784;2023-05-09T08:21:26;38.03;;;34.05;;
59300;SDS011;45073;52.740;6.784;2023-05-09T08:23:51;39.17;;;35.08;;
59300;SDS011;45073;52.740;6.784;2023-05-09T08:26:17;39.53;;;35.05;;
59300;SDS011;45073;52.740;6.784;2023-05-09T08:28:43;39.15;;;34.92;;
59300;SDS011;45073;52.740;6.784;2023-05-09T08:31:09;34.78;;;25.33;;
59300;SDS011;45073;52.740;6.784;2023-05-09T08:33:34;38.90;;;34.78;;
59300;SDS011;45073;52.740;6.784;2023-05-09T08:36:00;40.13;;;34.72;;
59300;SDS011;45073;52.740;6.784;2023-05-09T08:38:26;36.53;;;32.63;;
59300;SDS011;45073;52.740;6.784;2023-05-09T08:40:52;37.83;;;33.83;;
59300;SDS011;45073;52.740;6.784;2023-05-09T08:43:24;34.58;;;26.88;;
59300;SDS011;45073;52.740;6.784;2023-05-09T08:45:57;39.22;;;33.80;;
59300;SDS011;45073;52.740;6.784;2023-05-09T08:48:24;36.95;;;32.95;;
59300;SDS011;45073;52.740;6.784;2023-05-09T08:50:52;38.58;;;32.70;;
59300;SDS011;45073;52.740;6.784;2023-05-09T08:53:19;37.65;;;33.65;;
59300;SDS011;45073;52.740;6.784;2023-05-09T08:55:45;37.80;;;33.70;;
59300;SDS011;45073;52.740;6.784;2023-05-09T08:58:12;38.25;;;34.03;;
59300;SDS011;45073;52.740;6.784;2023-05-09T09:00:38;38.42;;;34.17;;
59300;SDS011;45073;52.740;6.784;2023-05-09T09:03:05;37.92;;;33.85;;
59300;SDS011;45073;52.740;6.784;2023-05-09T09:05:39;37.15;;;33.15;;
59300;SDS011;45073;52.740;6.784;2023-05-09T09:08:06;36.72;;;33.00;;
59300;SDS011;45073;52.740;6.784;2023-05-09T09:10:33;35.92;;;32.13;;
59300;SDS011;45073;52.740;6.784;2023-05-09T09:12:59;38.17;;;34.08;;
59300;SDS011;45073;52.740;6.784;2023-05-09T09:15:29;37.88;;;33.75;;
59300;SDS011;45073;52.740;6.784;2023-05-09T09:18:06;37.45;;;33.45;;
59300;SDS011;45073;52.740;6.784;2023-05-09T09:20:39;36.63;;;32.83;;
59300;SDS011;45073;52.740;6.784;2023-05-09T09:23:09;36.35;;;32.38;;
59300;SDS011;45073;52.740;6.784;2023-05-09T09:25:36;36.50;;;32.65;;
59300;SDS011;45073;52.740;6.784;2023-05-09T09:28:03;35.83;;;31.92;;
59300;SDS011;45073;52.740;6.784;2023-05-09T09:30:28;34.30;;;30.63;;
59300;SDS011;45073;52.740;6.784;2023-05-09T09:32:54;33.38;;;29.88;;
59300;SDS011;45073;52.740;6.784;2023-05-09T09:35:23;35.78;;;31.88;;
59300;SDS011;45073;52.740;6.784;2023-05-09T09:37:48;34.72;;;31.15;;
59300;SDS011;45073;52.740;6.784;2023-05-09T09:40:22;34.38;;;30.70;;
59300;SDS011;45073;52.740;6.784;2023-05-09T09:42:50;34.30;;;30.52;;
59300;SDS011;45073;52.740;6.784;2023-05-09T09:45:17;35.15;;;30.92;;
59300;SDS011;45073;52.740;6.784;2023-05-09T09:47:44;35.45;;;30.92;;
59300;SDS011;45073;52.740;6.784;2023-05-09T09:50:14;34.63;;;31.02;;
59300;SDS011;45073;52.740;6.784;2023-05-09T09:52:54;35.53;;;31.83;;
59300;SDS011;45073;52.740;6.784;2023-05-09T09:55:21;34.22;;;30.60;;
59300;SDS011;45073;52.740;6.784;2023-05-09T09:57:48;35.63;;;30.08;;
59300;SDS011;45073;52.740;6.784;2023-05-09T10:00:15;34.33;;;30.70;;
59300;SDS011;45073;52.740;6.784;2023-05-09T10:05:22;36.20;;;32.40;;
59300;SDS011;45073;52.740;6.784;2023-05-09T10:07:51;34.08;;;30.40;;
59300;SDS011;45073;52.740;6.784;2023-05-09T10:10:18;34.33;;;30.83;;
59300;SDS011;45073;52.740;6.784;2023-05-09T10:12:44;34.03;;;30.42;;
59300;SDS011;45073;52.740;6.784;2023-05-09T10:15:10;37.20;;;33.30;;
59300;SDS011;45073;52.740;6.784;2023-05-09T10:17:39;33.58;;;30.13;;
59300;SDS011;45073;52.740;6.784;2023-05-09T10:20:05;34.22;;;30.63;;
59300;SDS011;45073;52.740;6.784;2023-05-09T10:22:32;34.58;;;30.83;;
59300;SDS011;45073;52.740;6.784;2023-05-09T10:25:11;34.92;;;31.38;;
59300;SDS011;45073;52.740;6.784;2023-05-09T10:27:44;33.33;;;29.98;;
59300;SDS011;45073;52.740;6.784;2023-05-09T10:32:46;34.33;;;30.90;;
59300;SDS011;45073;52.740;6.784;2023-05-09T10:35:16;35.78;;;32.08;;
59300;SDS011;45073;52.740;6.784;2023-05-09T10:37:43;36.20;;;32.45;;
59300;SDS011;45073;52.740;6.784;2023-05-09T10:40:10;35.25;;;31.67;;
59300;SDS011;45073;52.740;6.784;2023-05-09T10:42:42;36.13;;;32.50;;
59300;SDS011;45073;52.740;6.784;2023-05-09T10:45:09;38.20;;;34.15;;
59300;SDS011;45073;52.740;6.784;2023-05-09T10:47:36;37.42;;;33.50;;
59300;SDS011;45073;52.740;6.784;2023-05-09T10:50:04;39.80;;;35.35;;
59300;SDS011;45073;52.740;6.784;2023-05-09T10:52:34;38.65;;;34.58;;
59300;SDS011;45073;52.740;6.784;2023-05-09T10:55:19;40.63;;;36.20;;
59300;SDS011;45073;52.740;6.784;2023-05-09T10:57:45;39.88;;;35.38;;
59300;SDS011;45073;52.740;6.784;2023-05-09T11:00:23;42.47;;;37.95;;
59300;SDS011;45073;52.740;6.784;2023-05-09T11:03:04;38.72;;;34.58;;
59300;SDS011;45073;52.740;6.784;2023-05-09T11:05:37;39.22;;;35.30;;
59300;SDS011;45073;52.740;6.784;2023-05-09T11:10:55;35.95;;;32.03;;
59300;SDS011;45073;52.740;6.784;2023-05-09T11:13:22;36.50;;;32.72;;
59300;SDS011;45073;52.740;6.784;2023-05-09T11:18:18;37.08;;;33.22;;
59300;SDS011;45073;52.740;6.784;2023-05-09T11:20:44;36.33;;;32.60;;
59300;SDS011;45073;52.740;6.784;2023-05-09T11:23:12;40.03;;;35.72;;
59300;SDS011;45073;52.740;6.784;2023-05-09T11:25:41;45.70;;;40.67;;
59300;SDS011;45073;52.740;6.784;2023-05-09T11:28:10;49.80;;;44.20;;
59300;SDS011;45073;52.740;6.784;2023-05-09T11:30:54;53.72;;;46.08;;
59300;SDS011;45073;52.740;6.784;2023-05-09T11:33:36;54.78;;;46.70;;
59300;SDS011;45073;52.740;6.784;2023-05-09T11:44:11;34.78;;;31.08;;
59300;SDS011;45073;52.740;6.784;2023-05-09T11:46:38;33.08;;;29.67;;
59300;SDS011;45073;52.740;6.784;2023-05-09T11:49:05;34.50;;;30.95;;
59300;SDS011;45073;52.740;6.784;2023-05-09T11:51:34;35.42;;;31.65;;
59300;SDS011;45073;52.740;6.784;2023-05-09T11:54:01;33.83;;;29.92;;
59300;SDS011;45073;52.740;6.784;2023-05-09T11:56:28;33.63;;;30.08;;
59300;SDS011;45073;52.740;6.784;2023-05-09T11:58:54;31.45;;;28.15;;
59300;SDS011;45073;52.740;6.784;2023-05-09T12:01:21;32.05;;;28.65;;
59300;SDS011;45073;52.740;6.784;2023-05-09T12:03:47;32.20;;;28.35;;
59300;SDS011;45073;52.740;6.784;2023-05-09T12:06:14;34.33;;;30.67;;
59300;SDS011;45073;52.740;6.784;2023-05-09T12:08:42;37.47;;;32.55;;
59300;SDS011;45073;52.740;6.784;2023-05-09T12:11:11;35.05;;;31.40;;
59300;SDS011;45073;52.740;6.784;2023-05-09T12:13:47;55.45;;;43.58;;
59300;SDS011;45073;52.740;6.784;2023-05-09T12:16:15;36.85;;;33.00;;
59300;SDS011;45073;52.740;6.784;2023-05-09T12:18:48;34.80;;;31.02;;
59300;SDS011;45073;52.740;6.784;2023-05-09T12:21:18;37.05;;;33.25;;
59300;SDS011;45073;52.740;6.784;2023-05-09T12:23:44;37.70;;;33.90;;
59300;SDS011;45073;52.740;6.784;2023-05-09T12:26:11;36.08;;;32.20;;
59300;SDS011;45073;52.740;6.784;2023-05-09T12:28:37;37.33;;;33.42;;
59300;SDS011;45073;52.740;6.784;2023-05-09T12:31:04;37.63;;;33.72;;
59300;SDS011;45073;52.740;6.784;2023-05-09T12:33:30;39.33;;;34.97;;
59300;SDS011;45073;52.740;6.784;2023-05-09T12:36:04;42.13;;;37.55;;
59300;SDS011;45073;52.740;6.784;2023-05-09T12:38:37;44.28;;;38.35;;
59300;SDS011;45073;52.740;6.784;2023-05-09T12:41:07;50.88;;;44.85;;
59300;SDS011;45073;52.740;6.784;2023-05-09T12:43:37;57.00;;;49.83;;
59300;SDS011;45073;52.740;6.784;2023-05-09T12:46:06;58.40;;;51.95;;
59300;SDS011;45073;52.740;6.784;2023-05-09T12:48:36;59.63;;;49.97;;
59300;SDS011;45073;52.740;6.784;2023-05-09T12:51:06;58.15;;;51.20;;
59300;SDS011;45073;52.740;6.784;2023-05-09T12:53:35;63.33;;;54.72;;
59300;SDS011;45073;52.740;6.784;2023-05-09T12:56:03;68.30;;;54.85;;
59300;SDS011;45073;52.740;6.784;2023-05-09T12:58:35;61.65;;;54.35;;
59300;SDS011;45073;52.740;6.784;2023-05-09T13:01:04;63.35;;;56.38;;
59300;SDS011;45073;52.740;6.784;2023-05-09T13:03:31;64.38;;;56.15;;
59300;SDS011;45073;52.740;6.784;2023-05-09T13:06:02;71.07;;;58.83;;
59300;SDS011;45073;52.740;6.784;2023-05-09T13:08:29;66.63;;;55.72;;
59300;SDS011;45073;52.740;6.784;2023-05-09T13:10:55;65.78;;;56.28;;
59300;SDS011;45073;52.740;6.784;2023-05-09T13:13:25;64.93;;;56.42;;
59300;SDS011;45073;52.740;6.784;2023-05-09T13:15:52;63.78;;;56.15;;
59300;SDS011;45073;52.740;6.784;2023-05-09T13:18:18;64.50;;;57.40;;
59300;SDS011;45073;52.740;6.784;2023-05-09T13:20:44;40.92;;;36.50;;
59300;SDS011;45073;52.740;6.784;2023-05-09T13:23:10;30.77;;;27.48;;
59300;SDS011;45073;52.740;6.784;2023-05-09T13:25:36;21.20;;;18.30;;
59300;SDS011;45073;52.740;6.784;2023-05-09T13:28:01;19.20;;;17.20;;
59300;SDS011;45073;52.740;6.784;2023-05-09T13:30:28;20.85;;;18.60;;
59300;SDS011;45073;52.740;6.784;2023-05-09T13:32:54;21.33;;;19.05;;
59300;SDS011;45073;52.740;6.784;2023-05-09T13:35:19;23.65;;;21.27;;
59300;SDS011;45073;52.740;6.784;2023-05-09T13:37:45;23.13;;;20.80;;
59300;SDS011;45073;52.740;6.784;2023-05-09T13:40:11;23.10;;;20.90;;
59300;SDS011;45073;52.740;6.784;2023-05-09T13:42:37;23.65;;;21.27;;
59300;SDS011;45073;52.740;6.784;2023-05-09T13:45:03;23.40;;;21.10;;
59300;SDS011;45073;52.740;6.784;2023-05-09T13:47:29;25.02;;;22.60;;
59300;SDS011;45073;52.740;6.784;2023-05-09T13:49:55;24.23;;;21.83;;
59300;SDS011;45073;52.740;6.784;2023-05-09T13:52:21;25.23;;;22.67;;
59300;SDS011;45073;52.740;6.784;2023-05-09T13:54:47;25.85;;;23.45;;
59300;SDS011;45073;52.740;6.784;2023-05-09T13:57:12;25.75;;;23.17;;
59300;SDS011;45073;52.740;6.784;2023-05-09T13:59:38;25.73;;;23.23;;
59300;SDS011;45073;52.740;6.784;2023-05-09T14:02:06;26.40;;;23.73;;
59300;SDS011;45073;52.740;6.784;2023-05-09T14:04:32;25.63;;;23.05;;
59300;SDS011;45073;52.740;6.784;2023-05-09T14:06:59;26.85;;;24.35;;
59300;SDS011;45073;52.740;6.784;2023-05-09T14:09:25;26.15;;;23.65;;
59300;SDS011;45073;52.740;6.784;2023-05-09T14:11:52;26.67;;;24.17;;
59300;SDS011;45073;52.740;6.784;2023-05-09T14:14:19;25.75;;;23.25;;
59300;SDS011;45073;52.740;6.784;2023-05-09T14:16:45;25.88;;;23.55;;
59300;SDS011;45073;52.740;6.784;2023-05-09T14:19:12;27.70;;;25.20;;
59300;SDS011;45073;52.740;6.784;2023-05-09T14:21:41;25.05;;;22.77;;
59300;SDS011;45073;52.740;6.784;2023-05-09T14:24:08;25.70;;;23.33;;
59300;SDS011;45073;52.740;6.784;2023-05-09T14:26:34;27.60;;;25.00;;
59300;SDS011;45073;52.740;6.784;2023-05-09T14:29:01;26.75;;;24.25;;
59300;SDS011;45073;52.740;6.784;2023-05-09T14:31:27;27.60;;;25.08;;
59300;SDS011;45073;52.740;6.784;2023-05-09T14:33:53;29.05;;;26.45;;
59300;SDS011;45073;52.740;6.784;2023-05-09T14:36:19;24.70;;;22.13;;
59300;SDS011;45073;52.740;6.784;2023-05-09T14:38:45;27.35;;;24.75;;
59300;SDS011;45073;52.740;6.784;2023-05-09T14:41:12;25.70;;;23.30;;
59300;SDS011;45073;52.740;6.784;2023-05-09T14:43:38;26.52;;;24.13;;
59300;SDS011;45073;52.740;6.784;2023-05-09T14:46:04;26.80;;;24.38;;
59300;SDS011;45073;52.740;6.784;2023-05-09T14:48:30;27.35;;;24.83;;
59300;SDS011;45073;52.740;6.784;2023-05-09T14:50:56;28.05;;;25.45;;